sensor_id;sensor_type;location;lat;lon;timestamp;temperature;humidity
12847;DHT22;6492;48.128;8.320;2023-04-08T00:02:05;2.80;76.30
12847;DHT22;6492;48.128;8.320;2023-04-08T00:06:06;2.80;76.50
12847;DHT22;6492;48.128;8.320;2023-04-08T00:10:08;2.80;76.60
12847;DHT22;6492;48.128;8.320;2023-04-08T00:14:12;2.80;76.60
12847;DHT22;6492;48.128;8.320;2023-04-08T00:18:15;2.90;76.80
12847;DHT22;6492;48.128;8.320;2023-04-08T00:22:17;2.90;76.80
12847;DHT22;6492;48.128;8.320;2023-04-08T00:26:19;2.80;76.80
12847;DHT22;6492;48.128;8.320;2023-04-08T00:30:22;2.90;77.00
12847;DHT22;6492;48.128;8.320;2023-04-08T00:34:23;2.90;77.10
12847;DHT22;6492;48.128;8.320;2023-04-08T00:38:25;2.90;77.10
12847;DHT22;6492;48.128;8.320;2023-04-08T00:42:27;2.90;77.10
12847;DHT22;6492;48.128;8.320;2023-04-08T00:46:35;2.90;77.20
12847;DHT22;6492;48.128;8.320;2023-04-08T00:50:37;2.90;77.30
12847;DHT22;6492;48.128;8.320;2023-04-08T00:54:40;2.90;77.20
12847;DHT22;6492;48.128;8.320;2023-04-08T00:58:42;2.90;77.20
12847;DHT22;6492;48.128;8.320;2023-04-08T01:02:50;2.90;77.20
12847;DHT22;6492;48.128;8.320;2023-04-08T01:07:00;2.90;77.10
12847;DHT22;6492;48.128;8.320;2023-04-08T01:11:06;2.80;76.90
12847;DHT22;6492;48.128;8.320;2023-04-08T01:15:11;2.80;76.90
12847;DHT22;6492;48.128;8.320;2023-04-08T01:19:19;2.80;76.90
12847;DHT22;6492;48.128;8.320;2023-04-08T01:23:29;2.80;77.00
12847;DHT22;6492;48.128;8.320;2023-04-08T01:27:35;2.80;77.10
12847;DHT22;6492;48.128;8.320;2023-04-08T01:31:38;2.80;77.10
12847;DHT22;6492;48.128;8.320;2023-04-08T01:35:40;2.80;77.30
12847;DHT22;6492;48.128;8.320;2023-04-08T01:39:43;2.80;77.40
12847;DHT22;6492;48.128;8.320;2023-04-08T01:43:47;2.80;77.40
12847;DHT22;6492;48.128;8.320;2023-04-08T01:47:49;2.90;77.60
12847;DHT22;6492;48.128;8.320;2023-04-08T01:51:52;2.90;77.50
12847;DHT22;6492;48.128;8.320;2023-04-08T01:56:00;2.90;77.40
12847;DHT22;6492;48.128;8.320;2023-04-08T02:00:07;2.90;77.40
12847;DHT22;6492;48.128;8.320;2023-04-08T02:04:09;2.90;77.40
12847;DHT22;6492;48.128;8.320;2023-04-08T02:08:11;2.90;77.30
12847;DHT22;6492;48.128;8.320;2023-04-08T02:12:13;2.90;77.20
12847;DHT22;6492;48.128;8.320;2023-04-08T02:16:22;2.90;77.00
12847;DHT22;6492;48.128;8.320;2023-04-08T02:20:29;2.80;76.80
12847;DHT22;6492;48.128;8.320;2023-04-08T02:24:33;2.80;76.80
12847;DHT22;6492;48.128;8.320;2023-04-08T02:28:35;2.80;76.80
12847;DHT22;6492;48.128;8.320;2023-04-08T02:32:39;2.80;76.90
12847;DHT22;6492;48.128;8.320;2023-04-08T02:36:41;2.80;76.90
12847;DHT22;6492;48.128;8.320;2023-04-08T02:40:47;2.80;77.00
12847;DHT22;6492;48.128;8.320;2023-04-08T02:44:50;2.90;77.10
12847;DHT22;6492;48.128;8.320;2023-04-08T02:48:53;2.90;77.10
12847;DHT22;6492;48.128;8.320;2023-04-08T02:52:55;2.90;77.00
12847;DHT22;6492;48.128;8.320;2023-04-08T02:56:57;2.90;77.00
12847;DHT22;6492;48.128;8.320;2023-04-08T03:00:58;2.80;76.80
12847;DHT22;6492;48.128;8.320;2023-04-08T03:05:01;2.90;76.90
12847;DHT22;6492;48.128;8.320;2023-04-08T03:09:04;2.80;76.80
12847;DHT22;6492;48.128;8.320;2023-04-08T03:13:06;2.80;76.60
12847;DHT22;6492;48.128;8.320;2023-04-08T03:17:08;2.80;76.60
12847;DHT22;6492;48.128;8.320;2023-04-08T03:21:11;2.80;76.70
12847;DHT22;6492;48.128;8.320;2023-04-08T03:25:13;2.80;76.60
12847;DHT22;6492;48.128;8.320;2023-04-08T03:29:14;2.80;76.70
12847;DHT22;6492;48.128;8.320;2023-04-08T03:33:16;2.80;76.70
12847;DHT22;6492;48.128;8.320;2023-04-08T03:37:19;2.80;76.60
12847;DHT22;6492;48.128;8.320;2023-04-08T03:41:21;2.70;76.60
12847;DHT22;6492;48.128;8.320;2023-04-08T03:45:23;2.70;76.50
12847;DHT22;6492;48.128;8.320;2023-04-08T03:49:25;2.70;76.50
12847;DHT22;6492;48.128;8.320;2023-04-08T03:53:28;2.60;76.50
12847;DHT22;6492;48.128;8.320;2023-04-08T03:57:30;2.60;76.50
12847;DHT22;6492;48.128;8.320;2023-04-08T04:01:32;2.60;76.70
12847;DHT22;6492;48.128;8.320;2023-04-08T04:05:33;2.60;76.80
12847;DHT22;6492;48.128;8.320;2023-04-08T04:09:37;2.60;77.80
12847;DHT22;6492;48.128;8.320;2023-04-08T04:13:39;2.60;77.20
12847;DHT22;6492;48.128;8.320;2023-04-08T04:17:41;2.70;77.40
12847;DHT22;6492;48.128;8.320;2023-04-08T04:21:43;2.70;77.40
12847;DHT22;6492;48.128;8.320;2023-04-08T04:25:46;2.70;77.40
12847;DHT22;6492;48.128;8.320;2023-04-08T04:29:48;2.70;77.40
12847;DHT22;6492;48.128;8.320;2023-04-08T04:33:49;2.60;77.40
12847;DHT22;6492;48.128;8.320;2023-04-08T04:37:51;2.70;77.40
12847;DHT22;6492;48.128;8.320;2023-04-08T04:41:54;2.60;77.30
12847;DHT22;6492;48.128;8.320;2023-04-08T04:46:01;2.60;77.30
12847;DHT22;6492;48.128;8.320;2023-04-08T04:50:07;2.50;77.30
12847;DHT22;6492;48.128;8.320;2023-04-08T04:54:09;2.60;77.40
12847;DHT22;6492;48.128;8.320;2023-04-08T04:58:12;2.60;77.50
12847;DHT22;6492;48.128;8.320;2023-04-08T05:02:14;2.50;77.50
12847;DHT22;6492;48.128;8.320;2023-04-08T05:06:15;2.50;77.60
12847;DHT22;6492;48.128;8.320;2023-04-08T05:10:17;2.60;77.80
12847;DHT22;6492;48.128;8.320;2023-04-08T05:14:20;2.60;78.00
12847;DHT22;6492;48.128;8.320;2023-04-08T05:18:22;2.70;78.20
12847;DHT22;6492;48.128;8.320;2023-04-08T05:22:24;2.70;78.40
12847;DHT22;6492;48.128;8.320;2023-04-08T05:26:26;2.80;78.50
12847;DHT22;6492;48.128;8.320;2023-04-08T05:30:29;2.80;78.50
12847;DHT22;6492;48.128;8.320;2023-04-08T05:34:31;2.80;78.40
12847;DHT22;6492;48.128;8.320;2023-04-08T05:38:33;2.90;78.60
12847;DHT22;6492;48.128;8.320;2023-04-08T05:42:35;2.90;78.60
12847;DHT22;6492;48.128;8.320;2023-04-08T05:46:38;3.00;78.80
12847;DHT22;6492;48.128;8.320;2023-04-08T05:50:40;3.10;78.90
12847;DHT22;6492;48.128;8.320;2023-04-08T05:54:42;3.20;79.00
12847;DHT22;6492;48.128;8.320;2023-04-08T05:58:44;3.20;79.20
12847;DHT22;6492;48.128;8.320;2023-04-08T06:02:47;3.30;79.50
12847;DHT22;6492;48.128;8.320;2023-04-08T06:06:49;3.40;79.60
12847;DHT22;6492;48.128;8.320;2023-04-08T06:10:51;3.50;79.60
12847;DHT22;6492;48.128;8.320;2023-04-08T06:14:53;3.60;79.50
12847;DHT22;6492;48.128;8.320;2023-04-08T06:18:57;3.60;79.40
12847;DHT22;6492;48.128;8.320;2023-04-08T06:22:59;3.80;79.60
12847;DHT22;6492;48.128;8.320;2023-04-08T06:27:00;3.90;79.30
12847;DHT22;6492;48.128;8.320;2023-04-08T06:31:02;4.10;78.30
12847;DHT22;6492;48.128;8.320;2023-04-08T06:35:06;4.20;77.10
12847;DHT22;6492;48.128;8.320;2023-04-08T06:39:08;4.30;74.90
12847;DHT22;6492;48.128;8.320;2023-04-08T06:43:10;4.30;71.50
12847;DHT22;6492;48.128;8.320;2023-04-08T06:47:12;4.40;70.90
12847;DHT22;6492;48.128;8.320;2023-04-08T06:51:15;4.60;69.90
12847;DHT22;6492;48.128;8.320;2023-04-08T06:55:17;4.70;68.70
12847;DHT22;6492;48.128;8.320;2023-04-08T06:59:19;4.80;66.80
12847;DHT22;6492;48.128;8.320;2023-04-08T07:03:20;4.80;62.90
12847;DHT22;6492;48.128;8.320;2023-04-08T07:07:24;4.90;63.90
12847;DHT22;6492;48.128;8.320;2023-04-08T07:11:26;5.20;63.90
12847;DHT22;6492;48.128;8.320;2023-04-08T07:15:27;5.60;63.70
12847;DHT22;6492;48.128;8.320;2023-04-08T07:19:29;6.00;52.80
12847;DHT22;6492;48.128;8.320;2023-04-08T07:23:33;6.40;49.10
12847;DHT22;6492;48.128;8.320;2023-04-08T07:27:34;6.70;42.00
12847;DHT22;6492;48.128;8.320;2023-04-08T07:31:37;6.70;38.60
12847;DHT22;6492;48.128;8.320;2023-04-08T07:35:38;6.70;38.70
12847;DHT22;6492;48.128;8.320;2023-04-08T07:39:43;6.80;39.80
12847;DHT22;6492;48.128;8.320;2023-04-08T07:43:44;6.90;33.90
12847;DHT22;6492;48.128;8.320;2023-04-08T07:47:47;7.00;34.80
12847;DHT22;6492;48.128;8.320;2023-04-08T07:51:49;7.10;34.70
12847;DHT22;6492;48.128;8.320;2023-04-08T07:55:52;7.30;33.40
12847;DHT22;6492;48.128;8.320;2023-04-08T07:59:54;7.40;32.80
12847;DHT22;6492;48.128;8.320;2023-04-08T08:03:55;7.40;31.90
12847;DHT22;6492;48.128;8.320;2023-04-08T08:07:57;7.30;30.30
12847;DHT22;6492;48.128;8.320;2023-04-08T08:12:01;7.20;30.50
12847;DHT22;6492;48.128;8.320;2023-04-08T08:16:02;7.20;32.70
12847;DHT22;6492;48.128;8.320;2023-04-08T08:20:08;7.30;33.00
12847;DHT22;6492;48.128;8.320;2023-04-08T08:24:10;7.40;32.10
12847;DHT22;6492;48.128;8.320;2023-04-08T08:28:13;7.40;30.20
12847;DHT22;6492;48.128;8.320;2023-04-08T08:32:15;7.30;30.20
12847;DHT22;6492;48.128;8.320;2023-04-08T08:36:17;7.10;32.50
12847;DHT22;6492;48.128;8.320;2023-04-08T08:40:19;7.00;33.90
12847;DHT22;6492;48.128;8.320;2023-04-08T08:44:22;6.90;33.50
12847;DHT22;6492;48.128;8.320;2023-04-08T08:48:24;6.80;33.70
12847;DHT22;6492;48.128;8.320;2023-04-08T08:52:26;6.60;34.30
12847;DHT22;6492;48.128;8.320;2023-04-08T08:56:28;6.60;34.90
12847;DHT22;6492;48.128;8.320;2023-04-08T09:00:35;6.40;34.70
12847;DHT22;6492;48.128;8.320;2023-04-08T09:04:37;6.20;35.30
12847;DHT22;6492;48.128;8.320;2023-04-08T09:08:39;6.10;36.50
12847;DHT22;6492;48.128;8.320;2023-04-08T09:12:52;6.20;37.20
12847;DHT22;6492;48.128;8.320;2023-04-08T09:16:56;6.30;37.30
12847;DHT22;6492;48.128;8.320;2023-04-08T09:21:02;6.40;36.50
12847;DHT22;6492;48.128;8.320;2023-04-08T09:25:22;6.60;34.60
12847;DHT22;6492;48.128;8.320;2023-04-08T09:29:24;6.60;35.40
12847;DHT22;6492;48.128;8.320;2023-04-08T09:33:31;6.70;35.60
12847;DHT22;6492;48.128;8.320;2023-04-08T09:37:32;6.90;36.00
12847;DHT22;6492;48.128;8.320;2023-04-08T09:41:36;7.00;34.50
12847;DHT22;6492;48.128;8.320;2023-04-08T09:45:39;7.20;32.80
12847;DHT22;6492;48.128;8.320;2023-04-08T09:49:48;7.20;33.50
12847;DHT22;6492;48.128;8.320;2023-04-08T09:53:55;7.20;30.90
12847;DHT22;6492;48.128;8.320;2023-04-08T09:58:03;7.30;29.00
12847;DHT22;6492;48.128;8.320;2023-04-08T10:02:10;7.40;30.80
12847;DHT22;6492;48.128;8.320;2023-04-08T10:06:14;7.50;29.00
12847;DHT22;6492;48.128;8.320;2023-04-08T10:10:16;7.80;28.90
12847;DHT22;6492;48.128;8.320;2023-04-08T10:14:18;7.80;27.30
12847;DHT22;6492;48.128;8.320;2023-04-08T10:18:30;7.80;27.80
12847;DHT22;6492;48.128;8.320;2023-04-08T10:22:47;8.00;26.50
12847;DHT22;6492;48.128;8.320;2023-04-08T10:26:49;7.70;24.80
12847;DHT22;6492;48.128;8.320;2023-04-08T10:30:52;7.70;26.90
12847;DHT22;6492;48.128;8.320;2023-04-08T10:34:54;8.00;26.60
12847;DHT22;6492;48.128;8.320;2023-04-08T10:38:57;8.40;24.70
12847;DHT22;6492;48.128;8.320;2023-04-08T10:42:59;8.80;23.10
12847;DHT22;6492;48.128;8.320;2023-04-08T10:47:00;9.10;22.30
12847;DHT22;6492;48.128;8.320;2023-04-08T10:51:03;9.30;20.50
12847;DHT22;6492;48.128;8.320;2023-04-08T10:55:08;9.30;20.60
12847;DHT22;6492;48.128;8.320;2023-04-08T10:59:09;9.00;19.80
12847;DHT22;6492;48.128;8.320;2023-04-08T11:03:12;8.90;21.30
12847;DHT22;6492;48.128;8.320;2023-04-08T11:07:13;8.70;20.80
12847;DHT22;6492;48.128;8.320;2023-04-08T11:11:18;8.50;21.90
12847;DHT22;6492;48.128;8.320;2023-04-08T11:15:21;8.60;22.30
12847;DHT22;6492;48.128;8.320;2023-04-08T11:19:23;8.90;21.90
12847;DHT22;6492;48.128;8.320;2023-04-08T11:23:25;9.30;20.30
12847;DHT22;6492;48.128;8.320;2023-04-08T11:27:28;10.00;20.70
12847;DHT22;6492;48.128;8.320;2023-04-08T11:31:31;11.00;19.50
12847;DHT22;6492;48.128;8.320;2023-04-08T11:35:33;12.10;16.80
12847;DHT22;6492;48.128;8.320;2023-04-08T11:39:39;12.30;9.30
12847;DHT22;6492;48.128;8.320;2023-04-08T11:43:54;12.10;11.20
12847;DHT22;6492;48.128;8.320;2023-04-08T11:47:56;11.40;10.30
12847;DHT22;6492;48.128;8.320;2023-04-08T11:51:59;10.60;11.50
12847;DHT22;6492;48.128;8.320;2023-04-08T11:56:15;9.90;14.10
12847;DHT22;6492;48.128;8.320;2023-04-08T12:00:19;9.40;17.10
12847;DHT22;6492;48.128;8.320;2023-04-08T12:04:21;8.90;18.10
12847;DHT22;6492;48.128;8.320;2023-04-08T12:08:24;8.80;21.00
12847;DHT22;6492;48.128;8.320;2023-04-08T12:12:26;8.80;21.40
12847;DHT22;6492;48.128;8.320;2023-04-08T12:16:29;8.90;20.80
12847;DHT22;6492;48.128;8.320;2023-04-08T12:20:31;9.10;20.70
12847;DHT22;6492;48.128;8.320;2023-04-08T12:24:33;9.40;20.20
12847;DHT22;6492;48.128;8.320;2023-04-08T12:28:35;9.50;19.60
12847;DHT22;6492;48.128;8.320;2023-04-08T12:32:38;9.60;19.50
12847;DHT22;6492;48.128;8.320;2023-04-08T12:36:40;9.60;20.00
12847;DHT22;6492;48.128;8.320;2023-04-08T12:40:42;9.60;20.00
12847;DHT22;6492;48.128;8.320;2023-04-08T12:44:44;9.50;18.40
12847;DHT22;6492;48.128;8.320;2023-04-08T12:48:47;9.30;19.50
12847;DHT22;6492;48.128;8.320;2023-04-08T12:52:48;9.40;19.20
12847;DHT22;6492;48.128;8.320;2023-04-08T12:56:50;9.30;16.90
12847;DHT22;6492;48.128;8.320;2023-04-08T13:00:52;9.40;16.40
12847;DHT22;6492;48.128;8.320;2023-04-08T13:04:55;9.30;18.10
12847;DHT22;6492;48.128;8.320;2023-04-08T13:08:58;9.20;17.80
12847;DHT22;6492;48.128;8.320;2023-04-08T13:13:00;9.40;18.00
12847;DHT22;6492;48.128;8.320;2023-04-08T13:17:02;9.50;16.40
12847;DHT22;6492;48.128;8.320;2023-04-08T13:21:05;9.40;15.80
12847;DHT22;6492;48.128;8.320;2023-04-08T13:25:07;9.20;16.60
12847;DHT22;6492;48.128;8.320;2023-04-08T13:29:09;9.10;17.20
12847;DHT22;6492;48.128;8.320;2023-04-08T13:33:11;8.90;18.10
12847;DHT22;6492;48.128;8.320;2023-04-08T13:37:14;8.60;17.40
12847;DHT22;6492;48.128;8.320;2023-04-08T13:41:16;8.40;16.70
12847;DHT22;6492;48.128;8.320;2023-04-08T13:45:18;8.20;17.80
12847;DHT22;6492;48.128;8.320;2023-04-08T13:49:20;8.00;18.70
12847;DHT22;6492;48.128;8.320;2023-04-08T13:53:23;7.80;19.40
12847;DHT22;6492;48.128;8.320;2023-04-08T13:57:25;7.70;21.60
12847;DHT22;6492;48.128;8.320;2023-04-08T14:01:27;7.50;23.40
12847;DHT22;6492;48.128;8.320;2023-04-08T14:05:29;7.30;25.00
12847;DHT22;6492;48.128;8.320;2023-04-08T14:09:32;7.10;26.00
12847;DHT22;6492;48.128;8.320;2023-04-08T14:13:35;7.00;27.60
12847;DHT22;6492;48.128;8.320;2023-04-08T14:17:37;6.80;28.30
12847;DHT22;6492;48.128;8.320;2023-04-08T14:21:38;6.80;28.70
12847;DHT22;6492;48.128;8.320;2023-04-08T14:25:41;6.70;29.10
12847;DHT22;6492;48.128;8.320;2023-04-08T14:29:43;6.80;30.00
12847;DHT22;6492;48.128;8.320;2023-04-08T14:33:45;6.80;29.80
12847;DHT22;6492;48.128;8.320;2023-04-08T14:37:46;6.90;30.20
12847;DHT22;6492;48.128;8.320;2023-04-08T14:41:49;7.00;29.60
12847;DHT22;6492;48.128;8.320;2023-04-08T14:45:51;7.20;28.50
12847;DHT22;6492;48.128;8.320;2023-04-08T14:49:53;7.30;27.40
12847;DHT22;6492;48.128;8.320;2023-04-08T14:53:55;7.60;25.80
12847;DHT22;6492;48.128;8.320;2023-04-08T14:57:58;7.80;25.30
12847;DHT22;6492;48.128;8.320;2023-04-08T15:02:00;7.90;23.10
12847;DHT22;6492;48.128;8.320;2023-04-08T15:06:03;7.90;22.90
12847;DHT22;6492;48.128;8.320;2023-04-08T15:10:06;8.00;22.60
12847;DHT22;6492;48.128;8.320;2023-04-08T15:14:09;8.10;23.10
12847;DHT22;6492;48.128;8.320;2023-04-08T15:18:11;8.30;22.60
12847;DHT22;6492;48.128;8.320;2023-04-08T15:22:13;8.40;22.80
12847;DHT22;6492;48.128;8.320;2023-04-08T15:26:15;8.60;22.30
12847;DHT22;6492;48.128;8.320;2023-04-08T15:30:18;8.60;22.00
12847;DHT22;6492;48.128;8.320;2023-04-08T15:34:23;8.60;20.90
12847;DHT22;6492;48.128;8.320;2023-04-08T15:38:28;8.50;21.80
12847;DHT22;6492;48.128;8.320;2023-04-08T15:42:30;8.40;21.80
12847;DHT22;6492;48.128;8.320;2023-04-08T15:46:33;8.10;23.80
12847;DHT22;6492;48.128;8.320;2023-04-08T15:50:34;8.00;24.80
12847;DHT22;6492;48.128;8.320;2023-04-08T15:54:36;7.70;25.10
12847;DHT22;6492;48.128;8.320;2023-04-08T15:58:38;7.40;25.90
12847;DHT22;6492;48.128;8.320;2023-04-08T16:02:41;7.10;27.30
12847;DHT22;6492;48.128;8.320;2023-04-08T16:06:43;6.90;28.50
12847;DHT22;6492;48.128;8.320;2023-04-08T16:10:46;6.80;29.20
12847;DHT22;6492;48.128;8.320;2023-04-08T16:14:48;6.70;30.30
12847;DHT22;6492;48.128;8.320;2023-04-08T16:18:51;6.50;31.60
12847;DHT22;6492;48.128;8.320;2023-04-08T16:22:55;6.30;33.20
12847;DHT22;6492;48.128;8.320;2023-04-08T16:26:57;6.20;34.60
12847;DHT22;6492;48.128;8.320;2023-04-08T16:30:58;6.10;35.90
12847;DHT22;6492;48.128;8.320;2023-04-08T16:35:02;6.00;37.70
12847;DHT22;6492;48.128;8.320;2023-04-08T16:39:03;5.90;38.70
12847;DHT22;6492;48.128;8.320;2023-04-08T16:43:05;5.70;40.00
12847;DHT22;6492;48.128;8.320;2023-04-08T16:47:07;5.70;40.30
12847;DHT22;6492;48.128;8.320;2023-04-08T16:51:10;5.60;41.60
12847;DHT22;6492;48.128;8.320;2023-04-08T16:55:12;5.70;42.80
12847;DHT22;6492;48.128;8.320;2023-04-08T16:59:14;5.60;42.80
12847;DHT22;6492;48.128;8.320;2023-04-08T17:03:15;5.60;43.40
12847;DHT22;6492;48.128;8.320;2023-04-08T17:07:19;5.60;43.80
12847;DHT22;6492;48.128;8.320;2023-04-08T17:11:24;5.60;43.90
12847;DHT22;6492;48.128;8.320;2023-04-08T17:15:26;5.60;45.00
12847;DHT22;6492;48.128;8.320;2023-04-08T17:19:27;5.60;45.90
12847;DHT22;6492;48.128;8.320;2023-04-08T17:23:32;5.60;45.90
12847;DHT22;6492;48.128;8.320;2023-04-08T17:27:34;5.60;46.60
12847;DHT22;6492;48.128;8.320;2023-04-08T17:31:36;5.50;46.30
12847;DHT22;6492;48.128;8.320;2023-04-08T17:35:39;5.60;46.20
12847;DHT22;6492;48.128;8.320;2023-04-08T17:39:44;5.50;46.80
12847;DHT22;6492;48.128;8.320;2023-04-08T17:43:46;5.40;46.90
12847;DHT22;6492;48.128;8.320;2023-04-08T17:47:48;5.40;47.00
12847;DHT22;6492;48.128;8.320;2023-04-08T17:51:51;5.30;47.70
12847;DHT22;6492;48.128;8.320;2023-04-08T17:56:02;5.30;48.10
12847;DHT22;6492;48.128;8.320;2023-04-08T18:00:06;5.20;48.40
12847;DHT22;6492;48.128;8.320;2023-04-08T18:04:08;5.20;48.90
12847;DHT22;6492;48.128;8.320;2023-04-08T18:08:11;5.10;49.60
12847;DHT22;6492;48.128;8.320;2023-04-08T18:12:14;5.10;50.00
12847;DHT22;6492;48.128;8.320;2023-04-08T18:16:16;5.10;50.40
12847;DHT22;6492;48.128;8.320;2023-04-08T18:20:20;5.00;51.00
12847;DHT22;6492;48.128;8.320;2023-04-08T18:24:23;4.90;51.50
12847;DHT22;6492;48.128;8.320;2023-04-08T18:28:35;4.90;52.10
12847;DHT22;6492;48.128;8.320;2023-04-08T18:32:38;4.80;52.40
12847;DHT22;6492;48.128;8.320;2023-04-08T18:36:46;4.70;52.90
12847;DHT22;6492;48.128;8.320;2023-04-08T18:40:51;4.70;53.50
12847;DHT22;6492;48.128;8.320;2023-04-08T18:44:54;4.60;53.80
12847;DHT22;6492;48.128;8.320;2023-04-08T18:48:55;4.60;54.30
12847;DHT22;6492;48.128;8.320;2023-04-08T18:52:58;4.60;54.80
12847;DHT22;6492;48.128;8.320;2023-04-08T18:57:00;4.60;55.90
12847;DHT22;6492;48.128;8.320;2023-04-08T19:01:06;4.60;56.50
12847;DHT22;6492;48.128;8.320;2023-04-08T19:05:08;4.50;56.50
12847;DHT22;6492;48.128;8.320;2023-04-08T19:09:11;4.50;56.40
12847;DHT22;6492;48.128;8.320;2023-04-08T19:13:16;4.40;56.10
12847;DHT22;6492;48.128;8.320;2023-04-08T19:17:19;4.40;56.20
12847;DHT22;6492;48.128;8.320;2023-04-08T19:21:21;4.30;56.40
12847;DHT22;6492;48.128;8.320;2023-04-08T19:25:24;4.30;57.10
12847;DHT22;6492;48.128;8.320;2023-04-08T19:29:26;4.20;56.20
12847;DHT22;6492;48.128;8.320;2023-04-08T19:33:42;4.10;56.20
12847;DHT22;6492;48.128;8.320;2023-04-08T19:37:50;4.10;55.60
12847;DHT22;6492;48.128;8.320;2023-04-08T19:41:58;4.00;55.10
12847;DHT22;6492;48.128;8.320;2023-04-08T19:46:14;3.90;55.10
12847;DHT22;6492;48.128;8.320;2023-04-08T19:50:19;3.70;55.10
12847;DHT22;6492;48.128;8.320;2023-04-08T19:54:21;3.70;55.20
12847;DHT22;6492;48.128;8.320;2023-04-08T19:58:41;3.50;55.10
12847;DHT22;6492;48.128;8.320;2023-04-08T20:02:47;3.40;55.90
12847;DHT22;6492;48.128;8.320;2023-04-08T20:06:54;3.30;56.70
12847;DHT22;6492;48.128;8.320;2023-04-08T20:10:56;3.30;57.30
12847;DHT22;6492;48.128;8.320;2023-04-08T20:14:58;3.20;57.90
12847;DHT22;6492;48.128;8.320;2023-04-08T20:19:01;3.20;58.20
12847;DHT22;6492;48.128;8.320;2023-04-08T20:23:04;3.20;58.40
12847;DHT22;6492;48.128;8.320;2023-04-08T20:27:15;3.20;59.20
12847;DHT22;6492;48.128;8.320;2023-04-08T20:31:18;3.20;60.10
12847;DHT22;6492;48.128;8.320;2023-04-08T20:35:20;3.20;60.70
12847;DHT22;6492;48.128;8.320;2023-04-08T20:39:23;3.20;61.20
12847;DHT22;6492;48.128;8.320;2023-04-08T20:43:35;3.20;61.20
12847;DHT22;6492;48.128;8.320;2023-04-08T20:47:38;3.20;61.00
12847;DHT22;6492;48.128;8.320;2023-04-08T20:51:40;3.20;61.00
12847;DHT22;6492;48.128;8.320;2023-04-08T20:55:44;3.20;60.80
12847;DHT22;6492;48.128;8.320;2023-04-08T20:59:45;3.20;61.00
12847;DHT22;6492;48.128;8.320;2023-04-08T21:03:47;3.20;60.80
12847;DHT22;6492;48.128;8.320;2023-04-08T21:07:49;3.20;60.60
12847;DHT22;6492;48.128;8.320;2023-04-08T21:11:52;3.20;60.70
12847;DHT22;6492;48.128;8.320;2023-04-08T21:15:54;3.30;60.80
12847;DHT22;6492;48.128;8.320;2023-04-08T21:19:56;3.20;60.30
12847;DHT22;6492;48.128;8.320;2023-04-08T21:23:58;3.20;60.10
12847;DHT22;6492;48.128;8.320;2023-04-08T21:28:02;3.20;60.00
12847;DHT22;6492;48.128;8.320;2023-04-08T21:32:05;3.20;59.90
12847;DHT22;6492;48.128;8.320;2023-04-08T21:36:07;3.20;59.90
12847;DHT22;6492;48.128;8.320;2023-04-08T21:40:09;3.20;59.80
12847;DHT22;6492;48.128;8.320;2023-04-08T21:44:14;3.20;59.80
12847;DHT22;6492;48.128;8.320;2023-04-08T21:48:16;3.20;59.90
12847;DHT22;6492;48.128;8.320;2023-04-08T21:52:17;3.20;60.00
12847;DHT22;6492;48.128;8.320;2023-04-08T21:56:20;3.20;59.80
12847;DHT22;6492;48.128;8.320;2023-04-08T22:00:33;3.10;59.70
12847;DHT22;6492;48.128;8.320;2023-04-08T22:04:34;3.10;59.60
12847;DHT22;6492;48.128;8.320;2023-04-08T22:08:36;3.10;59.30
12847;DHT22;6492;48.128;8.320;2023-04-08T22:12:38;3.10;59.30
12847;DHT22;6492;48.128;8.320;2023-04-08T22:16:41;3.10;59.20
12847;DHT22;6492;48.128;8.320;2023-04-08T22:20:44;3.10;59.10
12847;DHT22;6492;48.128;8.320;2023-04-08T22:24:45;3.00;59.00
12847;DHT22;6492;48.128;8.320;2023-04-08T22:28:47;3.00;58.90
12847;DHT22;6492;48.128;8.320;2023-04-08T22:32:50;3.00;59.00
12847;DHT22;6492;48.128;8.320;2023-04-08T22:36:52;2.90;59.50
12847;DHT22;6492;48.128;8.320;2023-04-08T22:40:54;2.90;59.70
12847;DHT22;6492;48.128;8.320;2023-04-08T22:44:55;2.90;60.30
12847;DHT22;6492;48.128;8.320;2023-04-08T22:48:59;2.80;60.00
12847;DHT22;6492;48.128;8.320;2023-04-08T22:53:00;2.80;60.30
12847;DHT22;6492;48.128;8.320;2023-04-08T22:57:03;2.80;60.70
12847;DHT22;6492;48.128;8.320;2023-04-08T23:01:16;2.70;60.70
12847;DHT22;6492;48.128;8.320;2023-04-08T23:05:21;2.70;61.10
12847;DHT22;6492;48.128;8.320;2023-04-08T23:09:24;2.70;61.20
12847;DHT22;6492;48.128;8.320;2023-04-08T23:13:27;2.70;61.40
12847;DHT22;6492;48.128;8.320;2023-04-08T23:17:28;2.70;61.70
12847;DHT22;6492;48.128;8.320;2023-04-08T23:21:32;2.70;61.80
12847;DHT22;6492;48.128;8.320;2023-04-08T23:25:34;2.60;61.90
12847;DHT22;6492;48.128;8.320;2023-04-08T23:29:36;2.60;62.10
12847;DHT22;6492;48.128;8.320;2023-04-08T23:33:38;2.60;62.30
12847;DHT22;6492;48.128;8.320;2023-04-08T23:37:41;2.50;62.40
12847;DHT22;6492;48.128;8.320;2023-04-08T23:41:43;2.40;62.30
12847;DHT22;6492;48.128;8.320;2023-04-08T23:45:45;2.30;62.50
12847;DHT22;6492;48.128;8.320;2023-04-08T23:49:47;2.20;62.90
12847;DHT22;6492;48.128;8.320;2023-04-08T23:53:50;2.00;63.30
12847;DHT22;6492;48.128;8.320;2023-04-08T23:57:52;1.90;64.10
